createdAt,value
2018-02-24T00:01:22.625Z,10.43
2018-02-24T00:03:50.174Z,9.70
2018-02-24T00:06:17.742Z,9.20
2018-02-24T00:08:45.293Z,9.40
2018-02-24T00:11:13.658Z,10.83
2018-02-24T00:13:41.216Z,9.13
2018-02-24T00:16:08.837Z,11.70
2018-02-24T00:18:36.388Z,10.00
2018-02-24T00:21:03.976Z,9.03
2018-02-24T00:23:32.288Z,9.40
2018-02-24T00:25:59.853Z,9.43
2018-02-24T00:28:28.210Z,9.30
2018-02-24T00:30:55.804Z,10.00
2018-02-24T00:33:23.349Z,9.63
2018-02-24T00:35:50.906Z,9.80
2018-02-24T00:38:18.467Z,9.97
2018-02-24T00:40:46.022Z,11.03
2018-02-24T00:43:13.589Z,9.67
2018-02-24T00:45:41.145Z,10.43
2018-02-24T00:48:09.497Z,9.07
2018-02-24T00:50:37.045Z,10.63
2018-02-24T00:53:04.646Z,9.97
2018-02-24T00:55:32.192Z,9.63
2018-02-24T00:57:59.765Z,9.50
2018-02-24T01:00:27.309Z,9.33
2018-02-24T01:02:54.905Z,10.47
2018-02-24T01:05:22.456Z,10.07
2018-02-24T01:07:50.004Z,9.73
2018-02-24T01:10:18.363Z,10.47
2018-02-24T01:12:45.917Z,10.03
2018-02-24T01:15:13.481Z,9.67
2018-02-24T01:17:41.035Z,11.73
2018-02-24T01:20:08.607Z,10.00
2018-02-24T01:22:36.161Z,10.27
2018-02-24T01:25:04.502Z,10.47
2018-02-24T01:27:32.056Z,10.63
2018-02-24T01:29:59.632Z,10.90
2018-02-24T01:32:27.179Z,11.13
2018-02-24T01:34:54.778Z,9.90
2018-02-24T01:37:22.334Z,10.17
2018-02-24T01:39:49.881Z,10.77
2018-02-24T01:42:18.212Z,11.73
2018-02-24T01:44:45.764Z,10.80
2018-02-24T01:47:14.097Z,11.00
2018-02-24T01:49:41.650Z,9.77
2018-02-24T01:52:09.230Z,10.77
2018-02-24T01:54:36.781Z,11.27
2018-02-24T01:57:04.358Z,10.83
2018-02-24T01:59:31.913Z,9.40
2018-02-24T02:01:59.493Z,10.30
2018-02-24T02:04:27.710Z,10.17
2018-02-24T02:06:55.273Z,11.43
2018-02-24T02:09:22.825Z,11.17
2018-02-24T02:11:50.396Z,10.67
2018-02-24T02:14:17.947Z,10.87
2018-02-24T02:16:46.854Z,10.60
2018-02-24T02:19:14.396Z,9.07
2018-02-24T02:21:42.714Z,10.30
2018-02-24T02:24:10.281Z,10.00
2018-02-24T02:26:37.828Z,10.70
2018-02-24T02:29:07.225Z,11.07
2018-02-24T02:31:34.769Z,10.90
2018-02-24T02:34:02.878Z,10.40
2018-02-24T02:36:30.418Z,10.27
2018-02-24T02:38:57.998Z,10.50
2018-02-24T02:41:25.548Z,9.27
2018-02-24T02:43:54.003Z,10.60
2018-02-24T02:46:22.321Z,10.17
2018-02-24T02:48:49.958Z,11.60
2018-02-24T02:51:17.524Z,9.97
2018-02-24T02:53:45.170Z,10.67
2018-02-24T02:56:12.745Z,11.27
2018-02-24T02:58:40.312Z,11.13
2018-02-24T03:01:07.872Z,10.30
2018-02-24T03:03:35.419Z,10.10
2018-02-24T03:06:03.739Z,11.70
2018-02-24T03:08:32.011Z,11.07
2018-02-24T03:10:59.874Z,11.43
2018-02-24T03:13:28.187Z,10.13
2018-02-24T03:15:55.761Z,11.00
2018-02-24T03:18:23.323Z,12.80
2018-02-24T03:20:50.864Z,11.23
2018-02-24T03:23:18.807Z,10.60
2018-02-24T03:25:46.375Z,10.10
2018-02-24T03:28:13.935Z,10.60
2018-02-24T03:30:41.480Z,10.50
2018-02-24T03:33:09.812Z,11.30
2018-02-24T03:35:37.350Z,11.63
2018-02-24T03:38:04.946Z,9.67
2018-02-24T03:40:32.501Z,11.37
2018-02-24T03:43:00.056Z,11.57
2018-02-24T03:45:29.171Z,10.93
2018-02-24T03:47:56.722Z,10.80
2018-02-24T03:50:25.064Z,10.00
2018-02-24T03:52:52.610Z,11.57
2018-02-24T03:55:20.176Z,10.63
2018-02-24T03:57:47.724Z,11.07
2018-02-24T04:00:16.064Z,11.67
2018-02-24T04:02:43.609Z,11.60
2018-02-24T04:05:11.169Z,9.43
2018-02-24T04:07:39.473Z,9.43
2018-02-24T04:10:07.056Z,9.53
2018-02-24T04:12:34.602Z,8.97
2018-02-24T04:15:02.951Z,9.90
2018-02-24T04:17:30.492Z,9.80
2018-02-24T04:19:58.040Z,8.60
2018-02-24T04:22:26.417Z,7.60
2018-02-24T04:24:55.539Z,6.37
2018-02-24T04:27:23.866Z,6.13
2018-02-24T04:29:51.408Z,5.70
2018-02-24T04:32:18.972Z,4.30
2018-02-24T04:34:47.279Z,5.50
2018-02-24T04:37:14.833Z,5.07
2018-02-24T04:39:43.137Z,5.17
2018-02-24T04:42:10.704Z,4.73
2018-02-24T04:44:38.248Z,4.70
2018-02-24T04:47:06.580Z,5.13
2018-02-24T04:49:34.124Z,3.83
2018-02-24T04:52:01.727Z,3.80
2018-02-24T04:54:29.268Z,3.93
2018-02-24T04:56:56.816Z,3.40
2018-02-24T04:59:24.382Z,3.50
2018-02-24T05:01:51.929Z,2.50
2018-02-24T05:04:20.303Z,2.37
2018-02-24T05:06:47.845Z,2.87
2018-02-24T05:09:16.166Z,2.23
2018-02-24T05:11:43.710Z,2.30
2018-02-24T05:14:11.298Z,1.50
2018-02-24T05:16:38.835Z,2.30
2018-02-24T05:19:07.167Z,2.03
2018-02-24T05:21:34.712Z,2.20
2018-02-24T05:24:02.312Z,2.67
2018-02-24T05:26:29.855Z,2.70
2018-02-24T05:28:58.163Z,2.60
2018-02-24T05:31:25.723Z,2.40
2018-02-24T05:33:53.251Z,2.57
2018-02-24T05:36:21.135Z,1.90
2018-02-24T05:38:48.680Z,2.10
2018-02-24T05:41:16.239Z,2.03
2018-02-24T05:43:43.796Z,2.20
2018-02-24T05:46:11.355Z,2.13
2018-02-24T05:48:39.659Z,1.83
2018-02-24T05:51:07.231Z,1.73
2018-02-24T05:53:34.776Z,2.37
2018-02-24T05:56:03.095Z,1.90
2018-02-24T05:58:30.629Z,1.40
2018-02-24T06:00:58.978Z,1.87
2018-02-24T06:03:26.548Z,1.97
2018-02-24T06:05:54.900Z,1.80
2018-02-24T06:08:22.459Z,2.10
2018-02-24T06:10:50.760Z,1.90
2018-02-24T06:13:18.321Z,1.70
2018-02-24T06:15:46.676Z,1.83
2018-02-24T06:18:14.220Z,1.23
2018-02-24T06:20:41.778Z,2.03
2018-02-24T06:23:09.411Z,2.07
2018-02-24T06:25:36.953Z,1.80
2018-02-24T06:28:04.533Z,1.70
2018-02-24T06:30:32.091Z,1.30
2018-02-24T06:33:00.416Z,1.00
2018-02-24T06:35:28.008Z,1.13
2018-02-24T06:37:56.335Z,1.47
2018-02-24T06:40:23.876Z,1.27
2018-02-24T06:42:51.454Z,1.60
2018-02-24T06:45:18.992Z,1.50
2018-02-24T06:47:46.571Z,1.53
2018-02-24T06:50:14.880Z,1.30
2018-02-24T06:52:42.424Z,1.43
2018-02-24T06:55:09.983Z,2.17
2018-02-24T06:57:37.525Z,1.63
2018-02-24T07:00:05.101Z,1.70
2018-02-24T07:02:32.637Z,1.77
2018-02-24T07:05:00.189Z,1.43
2018-02-24T07:07:28.488Z,2.03
2018-02-24T07:09:56.843Z,1.70
2018-02-24T07:12:24.380Z,1.40
2018-02-24T07:14:51.997Z,1.40
2018-02-24T07:17:19.559Z,1.37
2018-02-24T07:19:47.887Z,3.43
2018-02-24T07:22:15.440Z,5.17
2018-02-24T07:24:43.841Z,5.07
2018-02-24T07:27:12.173Z,1.10
2018-02-24T07:29:39.720Z,1.33
2018-02-24T07:32:07.297Z,2.50
2018-02-24T07:34:34.843Z,7.37
2018-02-24T07:37:02.400Z,1.93
2018-02-24T07:39:29.942Z,1.60
2018-02-24T07:41:57.505Z,1.80
2018-02-24T07:44:25.060Z,0.80
2018-02-24T07:46:52.627Z,3.27
2018-02-24T07:49:20.160Z,1.00
2018-02-24T07:51:49.456Z,3.30
2018-02-24T07:54:17.012Z,1.03
2018-02-24T07:56:44.596Z,1.73
2018-02-24T07:59:12.153Z,1.90
2018-02-24T08:01:39.719Z,1.17
2018-02-24T08:04:07.683Z,1.47
2018-02-24T08:06:35.841Z,1.50
2018-02-24T08:09:04.168Z,1.40
2018-02-24T08:11:31.706Z,1.30
2018-02-24T08:14:00.033Z,1.27
2018-02-24T08:16:28.692Z,1.57
2018-02-24T08:18:57.047Z,1.17
2018-02-24T08:21:25.380Z,1.17
2018-02-24T08:23:52.939Z,1.40
2018-02-24T08:26:21.242Z,1.13
2018-02-24T08:28:48.894Z,1.37
2018-02-24T08:31:17.204Z,1.23
2018-02-24T08:33:45.211Z,1.33
2018-02-24T08:36:12.752Z,1.43
2018-02-24T08:38:41.064Z,1.40
2018-02-24T08:41:08.621Z,2.23
2018-02-24T08:43:36.160Z,1.80
2018-02-24T08:46:04.524Z,2.27
2018-02-24T08:48:32.080Z,2.03
2018-02-24T08:50:59.683Z,2.30
2018-02-24T08:53:27.275Z,2.30
2018-02-24T08:55:55.595Z,1.93
2018-02-24T08:58:23.136Z,3.80
2018-02-24T09:00:52.917Z,1.77
2018-02-24T09:03:20.454Z,2.27
2018-02-24T09:05:48.016Z,1.70
2018-02-24T09:08:16.321Z,1.27
2018-02-24T09:10:43.879Z,1.53
2018-02-24T09:13:12.230Z,1.47
2018-02-24T09:15:39.798Z,1.40
2018-02-24T09:18:07.365Z,1.50
2018-02-24T09:20:34.911Z,1.10
2018-02-24T09:23:02.476Z,1.30
2018-02-24T09:25:31.139Z,1.47
2018-02-24T09:27:59.467Z,1.80
2018-02-24T09:30:27.067Z,1.00
2018-02-24T09:32:54.629Z,1.60
2018-02-24T09:35:22.861Z,1.33
2018-02-24T09:37:51.768Z,1.90
2018-02-24T09:40:20.119Z,1.10
2018-02-24T09:42:48.492Z,1.33
2018-02-24T09:45:16.668Z,1.10
2018-02-24T09:47:44.279Z,0.80
2018-02-24T09:50:11.836Z,1.40
2018-02-24T09:52:39.409Z,1.57
2018-02-24T09:55:06.984Z,1.93
2018-02-24T09:57:34.564Z,1.90
2018-02-24T10:00:02.116Z,1.50
2018-02-24T10:02:29.665Z,1.33
2018-02-24T10:04:57.229Z,2.40
2018-02-24T10:07:24.765Z,1.50
2018-02-24T10:09:52.335Z,2.00
2018-02-24T10:12:19.880Z,1.67
2018-02-24T10:14:47.460Z,1.37
2018-02-24T10:17:15.012Z,2.03
2018-02-24T10:19:42.589Z,2.03
2018-02-24T10:22:10.136Z,3.00
2018-02-24T10:24:38.690Z,2.13
2018-02-24T10:27:07.013Z,4.23
2018-02-24T10:29:34.588Z,1.43
2018-02-24T10:32:02.156Z,1.50
2018-02-24T10:34:31.200Z,1.60
2018-02-24T10:36:58.780Z,2.60
2018-02-24T10:39:26.348Z,2.50
2018-02-24T10:41:57.053Z,1.50
2018-02-24T10:44:24.609Z,1.60
2018-02-24T10:46:52.936Z,2.10
2018-02-24T10:49:21.826Z,2.60
2018-02-24T10:51:50.133Z,1.60
2018-02-24T10:54:17.701Z,2.27
2018-02-24T10:56:45.256Z,2.90
2018-02-24T10:59:12.796Z,2.23
2018-02-24T11:01:41.134Z,2.20
2018-02-24T11:04:08.677Z,2.40
2018-02-24T11:06:36.659Z,1.70
2018-02-24T11:09:05.270Z,2.20
2018-02-24T11:11:32.816Z,2.13
2018-02-24T11:14:01.154Z,2.10
2018-02-24T11:16:28.707Z,1.70
2018-02-24T11:18:56.268Z,3.00
2018-02-24T11:21:23.815Z,2.50
2018-02-24T11:23:52.145Z,1.80
2018-02-24T11:26:19.676Z,1.90
2018-02-24T11:28:47.241Z,1.50
2018-02-24T11:31:15.574Z,1.90
2018-02-24T11:33:45.263Z,2.30
2018-02-24T11:36:14.492Z,1.40
2018-02-24T11:38:45.638Z,1.80
2018-02-24T11:41:16.251Z,1.80
2018-02-24T11:43:44.085Z,1.83
2018-02-24T11:46:11.632Z,2.10
2018-02-24T11:49:02.435Z,1.63
2018-02-24T11:51:30.753Z,1.63
2018-02-24T11:59:55.677Z,2.10
2018-02-24T12:02:23.297Z,1.63
2018-02-24T12:04:50.902Z,1.70
2018-02-24T12:07:18.586Z,1.37
2018-02-24T12:09:55.162Z,3.40
2018-02-24T12:12:22.788Z,1.47
2018-02-24T12:14:58.417Z,1.53
2018-02-24T12:20:06.835Z,1.83
2018-02-24T12:22:35.228Z,1.80
2018-02-24T12:25:03.603Z,0.87
2018-02-24T12:27:31.268Z,1.00
2018-02-24T12:32:52.951Z,1.00
2018-02-24T12:35:20.521Z,1.30
2018-02-24T12:37:48.670Z,1.60
2018-02-24T12:40:16.216Z,1.67
2018-02-24T12:42:43.780Z,1.80
2018-02-24T12:45:12.093Z,1.60
2018-02-24T12:47:40.399Z,1.10
2018-02-24T12:50:07.960Z,1.70
2018-02-24T12:52:35.533Z,1.63
2018-02-24T12:55:03.101Z,2.33
2018-02-24T12:57:35.715Z,1.67
2018-02-24T13:00:05.932Z,1.67
2018-02-24T13:02:35.304Z,1.40
2018-02-24T13:05:04.742Z,1.80
2018-02-24T13:07:32.362Z,1.97
2018-02-24T13:10:27.367Z,2.40
2018-02-24T13:13:00.798Z,2.90
2018-02-24T13:15:29.046Z,1.77
2018-02-24T13:17:56.645Z,1.50
2018-02-24T13:20:25.833Z,2.00
2018-02-24T13:23:03.961Z,1.50
2018-02-24T13:25:33.388Z,1.93
2018-02-24T13:28:00.994Z,2.20
2018-02-24T13:30:35.322Z,1.90
2018-02-24T13:33:12.500Z,2.20
2018-02-24T13:35:40.105Z,1.60
2018-02-24T13:38:08.514Z,2.10
2018-02-24T13:40:36.117Z,2.20
2018-02-24T13:43:03.692Z,1.83
2018-02-24T13:45:31.409Z,1.13
2018-02-24T13:48:07.561Z,1.87
2018-02-24T13:50:35.256Z,2.03
2018-02-24T13:53:02.918Z,1.73
2018-02-24T13:55:31.301Z,1.97
2018-02-24T13:57:58.885Z,2.03
2018-02-24T14:00:26.496Z,1.43
2018-02-24T14:02:54.173Z,1.93
2018-02-24T14:05:21.758Z,2.60
2018-02-24T14:07:49.363Z,1.90
2018-02-24T14:10:16.977Z,1.50
2018-02-24T14:12:44.587Z,2.03
2018-02-24T14:15:12.992Z,2.50
2018-02-24T14:17:54.742Z,2.27
2018-02-24T14:20:23.126Z,1.80
2018-02-24T14:22:51.507Z,1.70
2018-02-24T14:25:19.910Z,1.80
2018-02-24T14:27:50.414Z,1.90
2018-02-24T14:30:18.090Z,2.07
2018-02-24T14:32:47.790Z,1.97
2018-02-24T14:35:15.426Z,2.70
2018-02-24T14:37:43.042Z,2.10
2018-02-24T14:40:14.372Z,2.03
2018-02-24T14:42:42.147Z,2.50
2018-02-24T14:45:09.784Z,2.93
2018-02-24T14:47:37.369Z,2.10
2018-02-24T14:50:07.208Z,1.80
2018-02-24T14:52:34.938Z,2.33
2018-02-24T14:55:02.658Z,2.10
2018-02-24T15:00:09.641Z,2.07
2018-02-24T15:02:37.276Z,2.67
2018-02-24T15:05:04.954Z,3.77
2018-02-24T15:07:36.518Z,1.93
2018-02-24T15:10:04.921Z,2.60
2018-02-24T15:12:32.506Z,1.50
2018-02-24T15:15:00.793Z,2.70
2018-02-24T15:17:28.456Z,1.73
2018-02-24T15:19:56.079Z,2.17
2018-02-24T15:22:25.518Z,2.83
2018-02-24T15:24:53.078Z,1.90
2018-02-24T15:27:21.396Z,2.37
2018-02-24T15:29:48.965Z,1.87
2018-02-24T15:32:16.522Z,1.70
2018-02-24T15:34:44.865Z,1.43
2018-02-24T15:37:12.415Z,1.70
2018-02-24T15:42:23.241Z,1.70
2018-02-24T15:44:50.850Z,2.20
2018-02-24T15:47:26.553Z,2.00
2018-02-24T15:52:27.984Z,2.30
2018-02-24T15:54:55.638Z,1.70
2018-02-24T15:57:24.418Z,2.10
2018-02-24T15:59:52.106Z,4.07
2018-02-24T16:02:19.749Z,3.03
2018-02-24T16:04:49.128Z,1.80
2018-02-24T16:07:16.754Z,1.60
2018-02-24T16:09:44.304Z,1.67
2018-02-24T16:12:11.924Z,2.47
2018-02-24T16:14:39.497Z,2.53
2018-02-24T16:17:07.052Z,1.93
2018-02-24T16:19:34.612Z,2.37
2018-02-24T16:22:02.209Z,3.50
2018-02-24T16:24:29.753Z,7.10
2018-02-24T16:26:58.287Z,4.60
2018-02-24T16:29:25.878Z,2.40
2018-02-24T16:31:53.448Z,8.80
2018-02-24T16:34:20.995Z,10.43
2018-02-24T16:36:48.570Z,8.10
2018-02-24T16:39:16.124Z,3.87
2018-02-24T16:41:43.721Z,9.23
2018-02-24T16:44:11.285Z,2.37
2018-02-24T16:46:38.865Z,7.13
2018-02-24T16:49:06.421Z,6.00
2018-02-24T16:51:34.388Z,5.73
2018-02-24T16:54:02.096Z,10.77
2018-02-24T16:56:29.691Z,11.37
2018-02-24T16:58:57.277Z,12.70
2018-02-24T17:01:24.847Z,4.07
2018-02-24T17:03:52.429Z,4.37
2018-02-24T17:06:20.005Z,2.60
2018-02-24T17:08:50.794Z,2.60
2018-02-24T17:11:18.378Z,2.90
2018-02-24T17:13:45.957Z,1.80
2018-02-24T17:16:13.520Z,3.53
2018-02-24T17:18:41.089Z,3.90
2018-02-24T17:21:08.654Z,2.53
2018-02-24T17:23:36.232Z,2.10
2018-02-24T17:26:03.819Z,1.67
2018-02-24T17:28:31.393Z,1.50
2018-02-24T17:30:58.972Z,1.53
2018-02-24T17:33:32.241Z,1.90
2018-02-24T17:36:00.613Z,2.50
2018-02-24T17:38:28.967Z,1.80
2018-02-24T17:40:56.531Z,1.63
2018-02-24T17:43:26.001Z,1.77
2018-02-24T17:45:54.328Z,1.90
2018-02-24T17:48:21.877Z,1.73
2018-02-24T17:50:50.228Z,2.10
2018-02-24T17:53:17.776Z,2.30
2018-02-24T17:55:45.344Z,2.50
2018-02-24T17:58:12.889Z,1.57
2018-02-24T18:00:40.461Z,2.30
2018-02-24T18:03:08.017Z,1.67
2018-02-24T18:05:36.352Z,1.90
2018-02-24T18:08:03.972Z,2.37
2018-02-24T18:10:32.320Z,2.27
2018-02-24T18:12:59.874Z,2.27
2018-02-24T18:15:27.450Z,2.07
2018-02-24T18:17:54.997Z,1.83
2018-02-24T18:20:22.613Z,2.40
2018-02-24T18:22:50.161Z,1.70
2018-02-24T18:25:17.730Z,2.60
2018-02-24T18:27:45.302Z,2.00
2018-02-24T18:30:12.866Z,1.90
2018-02-24T18:32:40.445Z,2.33
2018-02-24T18:35:08.005Z,2.27
2018-02-24T18:37:35.597Z,1.97
2018-02-24T18:40:03.153Z,2.23
2018-02-24T18:42:30.721Z,2.10
2018-02-24T18:44:58.280Z,3.07
2018-02-24T18:47:26.630Z,2.63
2018-02-24T18:49:54.944Z,2.73
2018-02-24T18:52:22.535Z,2.30
2018-02-24T18:54:50.105Z,2.07
2018-02-24T18:57:18.411Z,2.60
2018-02-24T18:59:45.979Z,2.80
2018-02-24T19:02:13.540Z,2.50
2018-02-24T19:04:41.897Z,3.47
2018-02-24T19:07:09.456Z,2.70
2018-02-24T19:09:37.020Z,2.83
2018-02-24T19:12:05.353Z,2.90
2018-02-24T19:14:32.941Z,3.20
2018-02-24T19:17:00.504Z,2.93
2018-02-24T19:19:29.038Z,4.13
2018-02-24T19:21:56.598Z,3.10
2018-02-24T19:24:24.169Z,2.60
2018-02-24T19:26:51.733Z,4.27
2018-02-24T19:29:19.327Z,3.20
2018-02-24T19:31:46.880Z,3.60
2018-02-24T19:34:14.441Z,3.40
2018-02-24T19:36:42.013Z,3.70
2018-02-24T19:39:09.584Z,3.60
2018-02-24T19:41:37.152Z,3.10
2018-02-24T19:44:04.700Z,3.57
2018-02-24T19:46:32.277Z,2.80
2018-02-24T19:49:00.596Z,3.67
2018-02-24T19:51:28.182Z,3.60
2018-02-24T19:53:55.747Z,4.20
2018-02-24T19:56:23.311Z,3.10
2018-02-24T19:58:50.912Z,3.30
2018-02-24T20:01:18.489Z,3.30
2018-02-24T20:03:46.036Z,2.70
2018-02-24T20:06:13.644Z,3.57
2018-02-24T20:08:41.203Z,2.80
2018-02-24T20:11:08.747Z,3.00
2018-02-24T20:13:36.316Z,3.00
2018-02-24T20:16:03.868Z,3.00
2018-02-24T20:18:32.196Z,3.77
2018-02-24T20:20:59.762Z,2.80
2018-02-24T20:23:27.336Z,3.30
2018-02-24T20:25:54.886Z,3.70
2018-02-24T20:28:22.461Z,3.87
2018-02-24T20:30:50.015Z,3.23
2018-02-24T20:33:18.357Z,3.70
2018-02-24T20:35:45.907Z,3.80
2018-02-24T20:38:13.493Z,3.20
2018-02-24T20:40:41.045Z,4.00
2018-02-24T20:43:08.604Z,3.40
2018-02-24T20:45:36.177Z,3.60
2018-02-24T20:48:03.741Z,3.50
2018-02-24T20:50:31.317Z,2.73
2018-02-24T20:52:59.650Z,2.60
2018-02-24T20:55:27.228Z,2.90
2018-02-24T20:57:54.771Z,2.50
2018-02-24T21:00:22.333Z,3.00
2018-02-24T21:02:49.880Z,2.77
2018-02-24T21:05:18.217Z,4.10
2018-02-24T21:07:45.780Z,3.43
2018-02-24T21:10:13.372Z,2.93
2018-02-24T21:12:40.920Z,2.80
2018-02-24T21:15:08.473Z,2.63
2018-02-24T21:17:36.049Z,2.73
2018-02-24T21:20:03.633Z,3.17
2018-02-24T21:22:31.209Z,2.60
2018-02-24T21:24:58.810Z,2.83
2018-02-24T21:27:26.424Z,2.53
2018-02-24T21:29:53.988Z,3.57
2018-02-24T21:32:22.325Z,2.80
2018-02-24T21:34:49.879Z,2.47
2018-02-24T21:37:17.450Z,1.93
2018-02-24T21:39:45.006Z,2.53
2018-02-24T21:42:12.594Z,2.50
2018-02-24T21:44:40.142Z,2.70
2018-02-24T21:47:08.505Z,2.97
2018-02-24T21:49:36.088Z,2.67
2018-02-24T21:52:04.418Z,2.23
2018-02-24T21:54:32.018Z,2.30
2018-02-24T21:56:59.585Z,2.73
2018-02-24T21:59:27.194Z,2.40
2018-02-24T22:01:56.327Z,2.83
2018-02-24T22:04:23.921Z,2.40
2018-02-24T22:06:51.478Z,3.80
2018-02-24T22:09:19.089Z,2.80
2018-02-24T22:11:46.645Z,2.60
2018-02-24T22:14:14.211Z,2.20
2018-02-24T22:16:41.852Z,3.17
2018-02-24T22:19:09.501Z,2.93
2018-02-24T22:21:37.053Z,3.30
2018-02-24T22:24:04.608Z,2.50
2018-02-24T22:26:32.177Z,3.60
2018-02-24T22:28:59.736Z,3.07
2018-02-24T22:31:27.324Z,2.40
2018-02-24T22:33:54.884Z,3.10
2018-02-24T22:36:22.465Z,3.30
2018-02-24T22:38:50.023Z,2.83
2018-02-24T22:41:17.597Z,2.60
2018-02-24T22:43:45.166Z,3.17
2018-02-24T22:46:12.760Z,2.70
2018-02-24T22:48:46.037Z,3.70
2018-02-24T22:51:13.624Z,3.67
2018-02-24T22:53:41.177Z,3.00
2018-02-24T22:56:08.724Z,3.63
2018-02-24T22:58:36.298Z,4.47
2018-02-24T23:01:04.621Z,3.70
2018-02-24T23:03:32.194Z,4.00
2018-02-24T23:05:59.749Z,4.57
2018-02-24T23:08:27.335Z,3.93
2018-02-24T23:10:54.893Z,4.20
2018-02-24T23:13:22.469Z,3.40
2018-02-24T23:15:50.012Z,3.60
2018-02-24T23:18:17.585Z,3.47
2018-02-24T23:20:45.152Z,3.00
2018-02-24T23:23:12.711Z,3.10
2018-02-24T23:25:40.281Z,2.97
2018-02-24T23:28:07.833Z,2.47
2018-02-24T23:30:35.413Z,2.90
2018-02-24T23:33:02.957Z,3.00
2018-02-24T23:35:30.529Z,3.23
2018-02-24T23:37:58.082Z,3.03
2018-02-24T23:40:25.654Z,3.03
2018-02-24T23:42:53.209Z,2.60
2018-02-24T23:45:20.807Z,3.30
2018-02-24T23:47:48.917Z,2.27
2018-02-24T23:50:16.491Z,2.50
2018-02-24T23:52:44.049Z,2.80
2018-02-24T23:55:11.606Z,2.70
2018-02-24T23:57:39.192Z,2.40
